Time;durP1;ratioP1;P1;durP2;ratioP2;P2;SDS_P1;SDS_P2;PMS_P1;PMS_P2;Temp;Humidity;BMP_temperature;BMP_pressure;BME280_temperature;BME280_humidity;BME280_pressure;Samples;Min_cycle;Max_cycle;Signal;HPM_P1;HPM_P2
2022/05/14 00:02:26;;;;;;;9.15;4.43;;;;;;;9.87;100.00;99944.34;4973497;28;20050;-91
2022/05/14 00:05:10;;;;;;;10.55;4.72;;;;;;;9.71;100.00;99953.38;4992087;28;20045;-90
2022/05/14 00:07:56;;;;;;;9.52;4.47;;;;;;;9.64;100.00;99954.38;4984873;28;20112;-91
2022/05/14 00:13:44;;;;;;;3.90;2.10;;;;;;;9.54;100.00;99958.94;5002626;28;20034;-91
2022/05/14 00:16:31;;;;;;;5.10;2.00;;;;;;;9.54;100.00;99967.63;4990388;28;20062;-91
2022/05/14 00:19:16;;;;;;;4.07;1.88;;;;;;;9.39;100.00;99954.81;4975010;28;20053;-91
2022/05/14 00:22:00;;;;;;;3.50;2.30;;;;;;;9.37;100.00;99967.09;4989112;28;20047;-91
2022/05/14 00:24:45;;;;;;;6.72;3.28;;;;;;;9.30;100.00;99968.94;4973287;28;20038;-91
2022/05/14 00:27:29;;;;;;;6.90;4.13;;;;;;;9.21;100.00;99968.25;4986913;28;20042;-91
2022/05/14 00:30:14;;;;;;;7.95;4.47;;;;;;;9.15;100.00;99971.81;4978115;28;20038;-91
2022/05/14 00:32:59;;;;;;;6.10;3.78;;;;;;;9.07;100.00;99978.94;4990186;28;20042;-91
2022/05/14 00:35:44;;;;;;;4.43;2.83;;;;;;;9.06;100.00;99975.41;5004942;28;20057;-91
2022/05/14 00:38:30;;;;;;;5.32;2.47;;;;;;;9.09;100.00;99977.13;4979380;28;20042;-91
2022/05/14 00:41:15;;;;;;;6.72;2.47;;;;;;;9.03;100.00;99972.84;4988972;28;20060;-91
2022/05/14 00:44:00;;;;;;;4.57;2.03;;;;;;;8.97;100.00;99975.59;4986280;28;20038;-90
2022/05/14 00:47:09;;;;;;;2.72;1.70;;;;;;;8.90;100.00;99968.72;5015117;28;20042;-91
2022/05/14 00:49:54;;;;;;;4.30;2.28;;;;;;;8.77;100.00;99964.56;4990576;28;20037;-93
2022/05/14 00:52:39;;;;;;;5.10;2.85;;;;;;;8.72;100.00;99962.03;5003107;28;20042;-91
2022/05/14 00:55:25;;;;;;;9.00;3.00;;;;;;;8.69;100.00;99959.47;4990379;28;20053;-91
2022/05/14 00:58:12;;;;;;;7.57;3.28;;;;;;;8.61;100.00;99957.00;4992037;28;20039;-90
2022/05/14 01:00:57;;;;;;;5.13;2.83;;;;;;;8.72;100.00;99959.44;4987670;28;20114;-91
2022/05/14 01:03:42;;;;;;;6.47;2.45;;;;;;;8.63;100.00;99956.94;4988991;28;20104;-91
2022/05/14 01:06:29;;;;;;;8.98;3.47;;;;;;;8.61;100.00;99951.78;4994795;28;20474;-91
2022/05/14 01:09:13;;;;;;;5.70;3.08;;;;;;;8.54;100.00;99944.88;4976844;28;20042;-90
2022/05/14 01:11:57;;;;;;;7.35;4.05;;;;;;;8.55;100.00;99951.84;4988038;28;20058;-91
2022/05/14 01:14:43;;;;;;;9.30;4.70;;;;;;;8.50;100.00;99944.97;4989920;28;20049;-90
2022/05/14 01:17:27;;;;;;;7.00;3.25;;;;;;;8.33;100.00;99943.41;4976783;28;20483;-91
2022/05/14 01:20:14;;;;;;;8.05;3.33;;;;;;;8.36;100.00;99956.44;4977674;28;20373;-91
2022/05/14 01:23:11;;;;;;;5.90;3.55;;;;;;;8.31;100.00;99955.63;4978488;28;20050;-91
2022/05/14 01:26:29;;;;;;;9.48;3.90;;;;;;;8.15;100.00;99949.72;4985867;28;20038;-91
2022/05/14 01:29:28;;;;;;;5.63;3.08;;;;;;;8.17;100.00;99947.97;4990797;28;20118;-91
2022/05/14 01:32:19;;;;;;;4.88;2.83;;;;;;;8.13;100.00;99933.25;5001497;28;20393;-90
2022/05/14 01:35:04;;;;;;;4.13;2.78;;;;;;;8.11;100.00;99934.16;4999790;28;20400;-91
2022/05/14 01:37:50;;;;;;;5.82;2.47;;;;;;;8.09;100.00;99938.50;5004327;28;20052;-91
2022/05/14 01:40:36;;;;;;;4.63;2.42;;;;;;;7.90;100.00;99941.38;4987659;28;20041;-91
2022/05/14 01:43:20;;;;;;;6.43;2.70;;;;;;;7.72;100.00;99941.56;4987383;28;20050;-91
2022/05/14 01:46:07;;;;;;;4.38;2.35;;;;;;;7.65;100.00;99938.19;4975365;28;20038;-91
2022/05/14 01:48:51;;;;;;;4.72;2.35;;;;;;;7.67;100.00;99938.16;4988573;28;20034;-91
2022/05/14 01:51:36;;;;;;;3.95;2.47;;;;;;;7.76;100.00;99935.44;4989105;28;20397;-91
2022/05/14 01:54:22;;;;;;;6.32;2.40;;;;;;;7.70;100.00;99925.06;4988009;28;20046;-91
2022/05/14 01:57:07;;;;;;;5.80;2.40;;;;;;;7.75;100.00;99940.69;4984633;28;20117;-91
2022/05/14 01:59:52;;;;;;;2.78;2.15;;;;;;;7.75;100.00;99931.13;4972634;28;20109;-90
2022/05/14 02:02:37;;;;;;;6.50;2.28;;;;;;;7.80;100.00;99929.34;4976526;28;20042;-91
2022/05/14 02:05:22;;;;;;;2.70;2.03;;;;;;;7.71;100.00;99925.06;4987256;28;20034;-91
2022/05/14 02:08:10;;;;;;;6.05;2.83;;;;;;;7.72;100.00;99939.81;4971547;28;20048;-91
2022/05/14 02:10:55;;;;;;;4.43;2.30;;;;;;;7.70;100.00;99927.69;4987213;28;20034;-91
2022/05/14 02:13:41;;;;;;;6.95;2.70;;;;;;;7.64;100.00;99925.19;4973288;28;20034;-91
2022/05/14 02:16:26;;;;;;;7.40;3.00;;;;;;;7.67;100.00;99931.22;4984796;28;20069;-91
2022/05/14 02:19:11;;;;;;;5.28;3.17;;;;;;;7.60;100.00;99932.13;5008328;28;20064;-91
2022/05/14 02:21:56;;;;;;;8.73;3.38;;;;;;;7.53;100.00;99933.09;4988887;28;20042;-91
2022/05/14 02:24:41;;;;;;;6.60;2.90;;;;;;;7.50;100.00;99930.50;5003404;28;20042;-90
2022/05/14 02:27:25;;;;;;;5.55;2.70;;;;;;;7.41;100.00;99934.09;4992367;28;20041;-91
2022/05/14 02:30:11;;;;;;;5.32;3.40;;;;;;;7.39;100.00;99930.63;4987124;28;20081;-91
2022/05/14 02:32:56;;;;;;;5.90;2.40;;;;;;;7.47;100.00;99922.72;4984045;28;20397;-91
2022/05/14 02:35:41;;;;;;;5.25;2.50;;;;;;;7.43;100.00;99928.84;4991084;28;20042;-91
2022/05/14 02:38:30;;;;;;;7.35;3.22;;;;;;;7.31;100.00;99927.22;4999529;28;20038;-90
2022/05/14 02:41:14;;;;;;;6.95;3.50;;;;;;;7.44;100.00;99930.56;4983752;28;20062;-91
2022/05/14 02:44:00;;;;;;;4.50;2.10;;;;;;;7.40;100.00;99932.34;4987158;28;20100;-91
2022/05/14 02:46:44;;;;;;;6.00;2.95;;;;;;;7.34;100.00;99937.63;4987928;28;20046;-91
2022/05/14 02:49:29;;;;;;;5.85;2.80;;;;;;;7.33;100.00;99938.50;4973227;28;20041;-91
2022/05/14 02:52:14;;;;;;;7.43;2.60;;;;;;;7.44;100.00;99936.69;4985003;28;20462;-91
2022/05/14 02:54:59;;;;;;;5.32;2.70;;;;;;;7.49;100.00;99937.47;4983869;28;20045;-91
2022/05/14 02:57:44;;;;;;;4.38;2.90;;;;;;;7.50;100.00;99933.13;4973127;28;20046;-90
2022/05/14 03:00:29;;;;;;;6.72;3.55;;;;;;;7.69;100.00;99949.44;4986418;28;20046;-91
2022/05/14 03:03:13;;;;;;;7.70;3.05;;;;;;;7.85;100.00;99942.31;4973240;28;20042;-91
2022/05/14 03:05:59;;;;;;;4.03;2.53;;;;;;;7.90;100.00;99930.94;4983902;28;20042;-91
2022/05/14 03:08:43;;;;;;;5.13;2.45;;;;;;;8.10;100.00;99946.34;4996215;28;20038;-91
2022/05/14 03:11:27;;;;;;;4.57;2.88;;;;;;;8.08;100.00;99940.25;4973469;28;20397;-91
2022/05/14 03:14:13;;;;;;;5.97;2.63;;;;;;;8.22;100.00;99947.91;4990812;28;20071;-91
2022/05/14 03:16:58;;;;;;;4.50;2.55;;;;;;;8.16;100.00;99933.22;4993663;28;20057;-91
2022/05/14 03:19:43;;;;;;;7.15;2.97;;;;;;;8.18;100.00;99947.09;4991178;28;20050;-91
2022/05/14 03:22:27;;;;;;;4.80;2.60;;;;;;;8.25;100.00;99942.66;4993404;28;20042;-91
2022/05/14 03:25:12;;;;;;;5.68;2.72;;;;;;;8.25;100.00;99929.59;4988782;28;20041;-92
2022/05/14 03:27:56;;;;;;;5.43;2.33;;;;;;;8.36;100.00;99935.56;4992966;28;20038;-91
2022/05/14 03:30:41;;;;;;;6.07;2.83;;;;;;;8.36;100.00;99940.78;4974169;28;20048;-94
2022/05/14 03:33:26;;;;;;;5.72;2.30;;;;;;;8.19;100.00;99943.63;4993052;28;20050;-92
2022/05/14 03:36:11;;;;;;;6.90;3.00;;;;;;;7.99;100.00;99937.78;4993667;28;20045;-91
2022/05/14 03:38:55;;;;;;;5.22;2.75;;;;;;;8.09;100.00;99939.41;4984537;28;20089;-91
2022/05/14 03:41:40;;;;;;;8.05;3.17;;;;;;;8.15;100.00;99939.28;4976610;28;20041;-92
2022/05/14 03:44:25;;;;;;;5.20;3.00;;;;;;;8.06;100.00;99934.22;5001024;28;20473;-91
2022/05/14 03:47:10;;;;;;;7.60;3.38;;;;;;;8.17;100.00;99936.69;4992097;28;20041;-91
2022/05/14 03:49:55;;;;;;;8.15;3.80;;;;;;;8.13;100.00;99938.47;4992086;28;20042;-92
2022/05/14 03:52:40;;;;;;;7.70;3.53;;;;;;;8.41;100.00;99938.97;4987775;28;20040;-91
2022/05/14 03:55:25;;;;;;;4.13;2.75;;;;;;;8.47;100.00;99939.78;4984207;28;20046;-92
2022/05/14 03:58:09;;;;;;;6.47;2.80;;;;;;;8.43;100.00;99950.28;4974849;28;20108;-92
2022/05/14 04:00:55;;;;;;;4.22;2.72;;;;;;;8.48;100.00;99954.56;4978898;28;20060;-91
2022/05/14 04:03:40;;;;;;;6.07;3.03;;;;;;;8.60;100.00;99942.19;4978617;28;20041;-91
2022/05/14 04:06:24;;;;;;;4.20;2.70;;;;;;;8.58;100.00;99937.88;4989740;28;20516;-91
2022/05/14 04:09:08;;;;;;;5.30;2.58;;;;;;;8.61;100.00;99936.09;4991749;28;20058;-91
2022/05/14 04:11:53;;;;;;;6.20;3.30;;;;;;;8.83;100.00;99941.84;4977915;28;20046;-92
2022/05/14 04:14:38;;;;;;;5.50;2.83;;;;;;;9.20;100.00;99945.63;4986868;28;20073;-94
2022/05/14 04:17:22;;;;;;;7.63;3.08;;;;;;;9.06;100.00;99941.47;4992504;28;20388;-94
2022/05/14 04:20:10;;;;;;;8.23;3.65;;;;;;;9.27;100.00;99944.63;4980147;28;20034;-93
2022/05/14 04:22:56;;;;;;;6.68;2.63;;;;;;;9.59;100.00;99938.81;4986959;28;20041;-94
2022/05/14 04:25:41;;;;;;;5.55;2.55;;;;;;;9.70;100.00;99928.13;4971700;28;20130;-91
2022/05/14 04:28:26;;;;;;;5.00;2.67;;;;;;;10.01;100.00;99926.63;5005652;28;20045;-91
2022/05/14 04:31:11;;;;;;;3.78;2.63;;;;;;;10.41;100.00;99938.88;4986311;28;20056;-92
2022/05/14 04:33:56;;;;;;;4.28;2.55;;;;;;;10.45;100.00;99930.03;5003484;28;20480;-91
2022/05/14 04:36:40;;;;;;;3.65;2.25;;;;;;;10.90;100.00;99932.50;4974599;28;20093;-90
2022/05/14 04:39:32;;;;;;;5.43;2.15;;;;;;;11.25;100.00;99932.53;5000298;28;20038;-90
2022/05/14 04:42:18;;;;;;;6.50;2.35;;;;;;;11.51;100.00;99927.44;4981535;28;20124;-90
2022/05/14 04:45:08;;;;;;;6.57;2.55;;;;;;;11.99;100.00;99923.50;4992786;28;20547;-90
2022/05/14 04:47:53;;;;;;;7.47;2.80;;;;;;;12.16;100.00;99927.38;4988945;28;20042;-90
2022/05/14 04:50:39;;;;;;;6.53;1.98;;;;;;;12.53;100.00;99914.88;4988012;28;20473;-91
2022/05/14 04:53:23;;;;;;;3.42;2.70;;;;;;;12.94;100.00;99926.69;4985223;28;20038;-91
2022/05/14 04:56:08;;;;;;;5.35;2.17;;;;;;;13.16;100.00;99931.22;4990253;28;20108;-91
2022/05/14 04:58:53;;;;;;;5.68;2.60;;;;;;;13.47;100.00;99929.31;4987825;28;20480;-91
2022/05/14 05:01:38;;;;;;;6.85;2.35;;;;;;;13.17;100.00;99917.19;4986859;28;20404;-92
2022/05/14 05:04:22;;;;;;;5.22;2.17;;;;;;;13.17;100.00;99927.72;4988763;28;20062;-92
2022/05/14 05:07:06;;;;;;;7.10;2.50;;;;;;;13.19;100.00;99917.97;4986349;28;20042;-90
2022/05/14 05:09:50;;;;;;;5.15;2.40;;;;;;;14.00;100.00;99936.19;4988127;28;20044;-92
2022/05/14 05:12:35;;;;;;;7.45;2.28;;;;;;;13.79;100.00;99925.53;4986136;28;20076;-91
2022/05/14 05:15:20;;;;;;;4.18;1.85;;;;;;;14.05;100.00;99918.44;4990562;28;20041;-91
2022/05/14 05:18:06;;;;;;;4.72;1.60;;;;;;;14.57;97.43;99936.69;4985920;28;20045;-91
2022/05/14 05:20:53;;;;;;;4.43;2.30;;;;;;;14.85;92.14;99925.88;4989826;28;20061;-92
2022/05/14 05:23:37;;;;;;;3.30;1.58;;;;;;;14.93;89.67;99929.09;4990571;28;20042;-92
2022/05/14 05:26:21;;;;;;;3.33;2.08;;;;;;;15.06;91.73;99929.44;4986484;28;20042;-91
2022/05/14 05:29:06;;;;;;;4.03;2.15;;;;;;;15.02;91.27;99933.13;4976121;28;20051;-91
2022/05/14 05:31:50;;;;;;;4.03;1.92;;;;;;;15.82;88.63;99928.78;4977866;28;20125;-91
2022/05/14 05:34:35;;;;;;;4.20;2.22;;;;;;;15.93;86.33;99930.13;4989184;28;20452;-91
2022/05/14 05:37:20;;;;;;;6.03;2.08;;;;;;;15.84;87.63;99924.31;4985865;28;20045;-91
2022/05/14 05:40:05;;;;;;;3.53;1.80;;;;;;;16.01;83.69;99926.19;4986962;28;20045;-91
2022/05/14 05:42:49;;;;;;;3.95;1.80;;;;;;;16.58;81.52;99934.13;4989752;28;20046;-92
2022/05/14 05:45:34;;;;;;;3.05;1.40;;;;;;;16.34;83.46;99930.84;4981794;28;20041;-91
2022/05/14 05:48:19;;;;;;;3.95;1.88;;;;;;;16.07;85.46;99922.41;4990324;28;20126;-92
2022/05/14 05:51:04;;;;;;;3.30;1.63;;;;;;;16.25;83.04;99924.22;4988482;28;20046;-92
2022/05/14 05:56:57;;;;;;;3.28;1.60;;;;;;;16.63;81.54;99912.72;4988993;28;20413;-91
2022/05/14 05:59:42;;;;;;;3.22;1.70;;;;;;;16.99;82.03;99924.19;4987266;28;20039;-92
2022/05/14 06:02:26;;;;;;;4.35;1.65;;;;;;;17.34;82.29;99918.06;4985951;28;20038;-92
2022/05/14 06:05:11;;;;;;;3.30;1.38;;;;;;;16.64;85.34;99927.66;4990047;28;20034;-92
2022/05/14 06:07:55;;;;;;;4.50;1.73;;;;;;;18.20;74.16;99925.00;4988303;28;20473;-91
2022/05/14 06:10:41;;;;;;;3.08;1.15;;;;;;;17.14;77.72;99927.88;4988109;28;20049;-92
2022/05/14 06:13:26;;;;;;;4.68;1.27;;;;;;;17.12;78.26;99928.88;4988131;28;20041;-91
2022/05/14 06:16:14;;;;;;;3.97;1.30;;;;;;;16.69;79.74;99929.16;4971023;28;20678;-92
2022/05/14 06:18:59;;;;;;;1.65;1.13;;;;;;;16.99;78.49;99925.97;4985099;28;20041;-92
2022/05/14 06:21:44;;;;;;;5.07;1.90;;;;;;;17.47;78.50;99935.88;4987991;28;20072;-91
2022/05/14 06:24:28;;;;;;;4.65;1.55;;;;;;;17.73;76.35;99942.47;4969534;28;20038;-92
2022/05/14 06:27:13;;;;;;;1.77;0.90;;;;;;;17.56;74.20;99937.19;4981037;28;20038;-92
2022/05/14 06:29:57;;;;;;;5.18;1.35;;;;;;;17.67;74.54;99948.06;4990515;28;20046;-91
2022/05/14 06:32:41;;;;;;;6.90;1.25;;;;;;;17.02;77.43;99942.56;4980200;28;20034;-92
2022/05/14 06:35:26;;;;;;;2.22;1.10;;;;;;;16.31;80.39;99941.53;4983330;28;20050;-91
2022/05/14 06:38:10;;;;;;;2.38;1.10;;;;;;;16.70;79.42;99945.88;4989622;28;20041;-91
2022/05/14 06:40:56;;;;;;;3.78;1.52;;;;;;;16.13;81.37;99944.13;4974411;28;20037;-91
2022/05/14 06:43:40;;;;;;;3.78;1.67;;;;;;;17.09;78.61;99940.44;4978432;28;20046;-91
2022/05/14 06:46:25;;;;;;;5.05;1.48;;;;;;;17.79;76.73;99933.38;4987932;28;20495;-91
2022/05/14 06:49:09;;;;;;;6.22;1.70;;;;;;;18.25;69.82;99932.69;4991772;28;20515;-90
2022/05/14 06:51:57;;;;;;;2.72;1.13;;;;;;;18.95;67.32;99922.59;5013608;28;20038;-90
2022/05/14 06:54:45;;;;;;;4.43;1.30;;;;;;;18.53;68.31;99922.28;4985504;28;20030;-90
2022/05/14 06:57:31;;;;;;;4.13;1.27;;;;;;;18.49;68.59;99926.06;4987976;28;20038;-90
2022/05/14 07:00:17;;;;;;;6.63;1.42;;;;;;;17.54;71.41;99925.81;4983219;28;20470;-91
2022/05/14 07:09:16;;;;;;;6.03;1.35;;;;;;;19.15;68.46;99901.91;4969409;28;20464;-91
2022/05/14 07:12:04;;;;;;;6.72;1.55;;;;;;;18.89;66.23;99908.75;4984542;28;20069;-91
2022/05/14 07:14:49;;;;;;;5.45;1.60;;;;;;;19.80;64.73;99898.91;4986706;28;20811;-91
2022/05/14 07:17:33;;;;;;;3.65;1.52;;;;;;;20.01;63.11;99896.72;4987959;28;20097;-92
2022/05/14 07:20:18;;;;;;;3.35;1.05;;;;;;;20.47;62.30;99906.22;5015490;28;20037;-91
2022/05/14 07:23:03;;;;;;;3.10;0.73;;;;;;;20.81;60.98;99896.94;4985715;28;20046;-91
2022/05/14 07:25:47;;;;;;;7.88;1.75;;;;;;;20.86;59.76;99900.16;4984395;28;20041;-91
2022/05/14 07:28:34;;;;;;;2.85;0.85;;;;;;;21.10;57.97;99907.47;4973509;28;20035;-91
2022/05/14 07:31:19;;;;;;;6.68;1.33;;;;;;;20.71;58.33;99901.19;4992114;28;20039;-93
2022/05/14 07:34:03;;;;;;;5.35;1.30;;;;;;;20.86;56.03;99899.28;4984760;28;20088;-91
2022/05/14 07:36:54;;;;;;;2.42;0.70;;;;;;;21.43;55.37;99905.22;4986078;28;20045;-92
2022/05/14 07:39:51;;;;;;;2.78;0.93;;;;;;;21.26;56.19;99886.84;4975982;28;20042;-91
2022/05/14 07:42:41;;;;;;;5.45;1.17;;;;;;;21.62;51.74;99888.81;4969282;28;20058;-92
2022/05/14 07:45:33;;;;;;;3.63;0.73;;;;;;;22.04;53.46;99888.56;4987606;28;20117;-91
2022/05/14 07:48:22;;;;;;;4.00;0.60;;;;;;;22.46;51.04;99891.81;4971064;28;20389;-91
2022/05/14 07:51:10;;;;;;;3.45;1.02;;;;;;;22.71;50.35;99898.84;4969705;28;20038;-91
2022/05/14 07:53:54;;;;;;;2.15;0.60;;;;;;;21.86;50.15;99883.56;4984539;28;20031;-92
2022/05/14 07:56:40;;;;;;;6.75;0.90;;;;;;;21.26;50.44;99878.84;4983476;28;20034;-92
2022/05/14 07:59:25;;;;;;;5.43;1.23;;;;;;;22.20;49.70;99888.31;5002051;28;20038;-91
2022/05/14 08:02:24;;;;;;;4.05;0.88;;;;;;;20.99;53.35;99900.19;4982262;28;20125;-91
2022/05/14 08:05:10;;;;;;;3.53;1.05;;;;;;;20.19;53.60;99894.72;4971354;28;20038;-91
2022/05/14 08:07:55;;;;;;;3.88;0.95;;;;;;;20.46;53.90;99899.22;4995983;28;20992;-91
2022/05/14 08:10:40;;;;;;;3.30;0.88;;;;;;;20.26;54.10;99895.19;4999301;28;20038;-92
2022/05/14 08:13:25;;;;;;;6.38;0.88;;;;;;;19.84;54.84;99891.59;4973071;28;20042;-92
2022/05/14 08:16:10;;;;;;;4.30;1.08;;;;;;;19.40;52.94;99884.50;4980909;28;20046;-92
2022/05/14 08:18:54;;;;;;;5.38;1.10;;;;;;;19.34;51.72;99890.22;4992350;28;20030;-91
2022/05/14 08:24:42;;;;;;;4.15;0.82;;;;;;;18.68;56.21;99886.91;4990199;28;20072;-91
2022/05/14 08:27:26;;;;;;;6.20;1.63;;;;;;;19.00;52.85;99894.00;4987949;28;20042;-91
2022/05/14 08:30:23;;;;;;;3.63;1.20;;;;;;;18.43;53.92;99894.56;4971978;28;20040;-90
2022/05/14 08:33:08;;;;;;;6.75;1.58;;;;;;;18.82;55.18;99898.59;4987561;28;20084;-92
2022/05/14 08:35:52;;;;;;;9.20;1.88;;;;;;;18.80;53.77;99896.00;4987554;28;20669;-91
2022/05/14 08:38:37;;;;;;;2.63;1.00;;;;;;;18.78;52.45;99891.72;4997783;28;20045;-91
2022/05/14 08:41:22;;;;;;;5.18;1.40;;;;;;;20.35;49.47;99878.63;4971134;28;20045;-92
2022/05/14 08:44:10;;;;;;;3.22;0.73;;;;;;;21.09;50.28;99879.13;4988601;28;20044;-91
2022/05/14 08:46:58;;;;;;;4.55;0.98;;;;;;;20.63;51.89;99869.72;4989149;28;20461;-91
2022/05/14 08:49:49;;;;;;;3.80;1.13;;;;;;;20.63;51.99;99887.50;4982544;28;20049;-92
2022/05/14 08:52:37;;;;;;;3.88;0.95;;;;;;;19.73;52.05;99876.34;4987220;28;20044;-92
2022/05/14 08:55:22;;;;;;;8.93;1.30;;;;;;;18.90;53.61;99893.69;5004416;28;20065;-93
2022/05/14 08:58:13;;;;;;;6.65;1.50;;;;;;;18.60;53.16;99883.00;4986364;28;20034;-92
2022/05/14 09:01:03;;;;;;;6.43;1.55;;;;;;;18.64;54.10;99896.00;5004587;28;20038;-92
2022/05/14 09:03:48;;;;;;;7.07;1.38;;;;;;;18.21;55.84;99901.06;5001900;28;20042;-92
2022/05/14 09:06:33;;;;;;;6.47;1.77;;;;;;;17.84;56.77;99891.63;4985720;28;20041;-93
2022/05/14 09:09:17;;;;;;;8.00;1.40;;;;;;;18.06;55.82;99903.69;4987966;28;20625;-92
2022/05/14 09:12:03;;;;;;;6.47;1.90;;;;;;;18.50;55.78;99895.94;4988321;28;20046;-91
2022/05/14 09:14:54;;;;;;;3.60;1.30;;;;;;;20.37;53.56;99890.00;4985525;28;20080;-91
2022/05/14 09:17:38;;;;;;;6.15;2.00;;;;;;;19.18;53.77;99886.78;4988363;28;20056;-91
2022/05/14 09:20:25;;;;;;;4.20;1.95;;;;;;;19.42;54.55;99893.25;4984761;28;20062;-92
2022/05/14 09:23:10;;;;;;;9.23;3.92;;;;;;;19.37;55.13;99895.34;4975120;28;20105;-91
2022/05/14 09:25:55;;;;;;;6.75;2.33;;;;;;;19.15;56.07;99895.75;4989762;28;20473;-92
2022/05/14 09:28:50;;;;;;;6.05;1.50;;;;;;;19.21;56.85;99897.22;4986280;28;20038;-91
2022/05/14 09:31:36;;;;;;;9.13;2.10;;;;;;;20.30;53.64;99894.88;4975460;28;20038;-92
2022/05/14 09:34:24;;;;;;;3.20;1.73;;;;;;;19.75;54.19;99889.50;4983876;28;20061;-91
2022/05/14 09:37:20;;;;;;;6.68;2.40;;;;;;;19.42;55.65;99884.44;4983647;28;20908;-90
2022/05/14 09:40:12;;;;;;;8.75;2.88;;;;;;;19.82;56.25;99886.41;4988095;28;20042;-90
2022/05/14 09:43:11;;;;;;;6.63;3.10;;;;;;;20.01;56.24;99886.09;4970597;28;20114;-90
2022/05/14 09:46:00;;;;;;;9.55;2.40;;;;;;;19.24;57.49;99889.03;4985182;28;20049;-91
2022/05/14 09:48:51;;;;;;;6.50;2.30;;;;;;;19.19;58.15;99872.53;4985293;28;20121;-91
2022/05/14 09:51:54;;;;;;;7.25;2.20;;;;;;;19.73;59.90;99884.31;4967662;28;20022;-90
2022/05/14 09:54:43;;;;;;;;;;;;;;;20.05;56.22;99884.09;4970628;28;20089;-91
2022/05/14 09:57:53;;;;;;;8.65;2.47;;;;;;;20.54;53.06;99876.53;4985119;28;19925;-90
2022/05/14 10:01:03;;;;;;;6.60;2.95;;;;;;;20.89;55.53;99881.31;4999613;28;20500;-91
2022/05/14 10:04:29;;;;;;;8.45;3.05;;;;;;;19.14;57.08;99891.38;4991998;28;20046;-91
2022/05/14 10:07:34;;;;;;;12.32;3.05;;;;;;;19.18;57.39;99890.28;4976429;28;20071;-90
2022/05/14 10:10:43;;;;;;;7.97;2.50;;;;;;;20.48;53.99;99881.38;4979863;28;20048;-90
2022/05/14 10:13:44;;;;;;;4.60;2.83;;;;;;;21.11;51.99;99871.91;4980518;28;20038;-90
2022/05/14 10:16:46;;;;;;;4.90;2.95;;;;;;;20.19;54.76;99877.91;4980643;28;20034;-91
2022/05/14 10:20:00;;;;;;;8.48;3.10;;;;;;;19.13;57.25;99871.94;4987572;28;20057;-91
2022/05/14 10:26:47;;;;;;;7.28;2.78;;;;;;;18.79;61.67;99889.00;4990613;28;20045;-90
2022/05/14 10:29:46;;;;;;;3.35;2.30;;;;;;;20.44;56.97;99888.69;4990467;28;20692;-90
2022/05/14 10:32:32;;;;;;;16.63;11.25;;;;;;;20.82;55.08;99869.38;4983401;28;20042;-90
2022/05/14 10:35:27;;;;;;;36.63;20.42;;;;;;;19.57;57.86;99884.38;4994853;28;20042;-90
2022/05/14 10:38:24;;;;;;;36.70;24.77;;;;;;;20.67;57.00;99871.25;4974373;28;20049;-90
2022/05/14 10:41:08;;;;;;;66.25;34.17;;;;;;;19.58;56.65;99867.47;4987497;28;20037;-91
2022/05/14 10:43:59;;;;;;;61.35;30.42;;;;;;;19.43;56.89;99865.75;4977432;28;20058;-91
2022/05/14 10:46:46;;;;;;;36.85;18.83;;;;;;;21.31;51.83;99871.38;4995978;28;20034;-91
2022/05/14 10:49:38;;;;;;;88.07;38.85;;;;;;;21.47;49.68;99855.22;4991537;28;20073;-91
2022/05/14 10:52:24;;;;;;;110.03;47.72;;;;;;;22.23;49.63;99850.75;4991838;28;20034;-92
2022/05/14 10:55:15;;;;;;;49.63;33.20;;;;;;;20.25;52.55;99853.59;4988280;28;20117;-91
2022/05/14 10:58:06;;;;;;;10.15;6.18;;;;;;;19.54;55.67;99868.59;4977546;28;20065;-91
2022/05/14 11:00:52;;;;;;;11.65;4.95;;;;;;;19.32;55.56;99866.41;4979119;28;20040;-91
2022/05/14 11:03:41;;;;;;;5.65;2.70;;;;;;;19.80;55.05;99858.22;4982921;28;20041;-91
2022/05/14 11:06:31;;;;;;;6.40;2.70;;;;;;;19.25;55.89;99864.22;4995874;28;20049;-90
2022/05/14 11:09:30;;;;;;;8.52;2.40;;;;;;;20.27;54.92;99867.63;4989725;28;20038;-91
2022/05/14 11:12:28;;;;;;;6.97;2.30;;;;;;;20.79;52.81;99872.22;4984048;28;20043;-90
2022/05/14 11:15:25;;;;;;;5.35;2.00;;;;;;;21.45;50.96;99854.50;4985391;28;20038;-90
2022/05/14 11:18:16;;;;;;;6.80;2.03;;;;;;;20.63;53.62;99855.56;4984874;28;20054;-91
2022/05/14 11:21:05;;;;;;;8.60;3.40;;;;;;;21.21;51.45;99855.19;4988998;28;20401;-91
2022/05/14 11:23:59;;;;;;;3.80;1.90;;;;;;;20.20;52.82;99861.84;4985157;28;20038;-91
2022/05/14 11:26:53;;;;;;;11.82;3.40;;;;;;;20.89;53.41;99868.00;4974196;28;20489;-91
2022/05/14 11:30:02;;;;;;;6.22;1.75;;;;;;;21.77;50.99;99862.88;4969627;28;20039;-91
2022/05/14 11:32:53;;;;;;;5.13;1.42;;;;;;;22.06;48.10;99865.28;4980033;28;20049;-91
2022/05/14 11:35:43;;;;;;;6.45;1.75;;;;;;;21.27;47.33;99856.56;4992518;28;20046;-90
2022/05/14 11:38:27;;;;;;;8.18;1.67;;;;;;;21.75;48.80;99867.50;4993634;28;20041;-92
2022/05/14 11:41:35;;;;;;;8.48;1.75;;;;;;;20.66;48.75;99858.88;4988969;28;20084;-91
2022/05/14 11:44:33;;;;;;;13.75;1.50;;;;;;;21.65;47.46;99864.63;4991598;28;20057;-90
2022/05/14 11:47:46;;;;;;;10.07;2.10;;;;;;;21.40;47.81;99841.47;4994994;28;20038;-91
2022/05/14 11:51:13;;;;;;;7.30;3.30;;;;;;;21.35;49.08;99862.28;4967584;28;20061;-91
2022/05/14 11:54:00;;;;;;;17.73;7.70;;;;;;;21.40;47.97;99852.13;4986328;28;20089;-91
2022/05/14 11:57:05;;;;;;;12.30;6.10;;;;;;;22.62;45.48;99855.88;4980757;28;20494;-91
2022/05/14 12:00:08;;;;;;;7.57;3.65;;;;;;;22.91;46.17;99850.16;4988985;28;20038;-91
2022/05/14 12:03:16;;;;;;;11.32;5.22;;;;;;;22.15;46.18;99865.50;5002105;28;20038;-91
2022/05/14 12:06:27;;;;;;;12.23;5.07;;;;;;;20.95;48.47;99856.09;4974865;28;20042;-92
2022/05/14 12:09:28;;;;;;;7.57;2.30;;;;;;;20.93;49.14;99850.88;4976012;28;20054;-91
2022/05/14 12:12:20;;;;;;;5.40;2.28;;;;;;;19.88;50.10;99855.91;4992705;28;20049;-91
2022/05/14 12:15:11;;;;;;;5.97;2.47;;;;;;;20.01;50.14;99862.16;4979029;28;20629;-91
2022/05/14 12:17:58;;;;;;;6.50;2.80;;;;;;;21.26;47.83;99859.38;4990910;28;20038;-92
2022/05/14 12:20:44;;;;;;;5.30;2.35;;;;;;;21.97;45.96;99844.63;4998052;28;20097;-92
2022/05/14 12:23:41;;;;;;;5.45;2.58;;;;;;;21.65;45.67;99850.44;4989323;28;20042;-91
2022/05/14 12:26:28;;;;;;;8.68;5.03;;;;;;;20.94;48.69;99843.75;4983415;28;20477;-91
2022/05/14 12:29:27;;;;;;;13.07;7.32;;;;;;;20.15;49.40;99849.78;4987563;28;20443;-91
2022/05/14 12:35:25;;;;;;;8.20;3.03;;;;;;;21.67;45.33;99848.50;4985917;28;20057;-91
2022/05/14 12:38:12;;;;;;;4.47;1.92;;;;;;;21.87;45.10;99845.31;4994342;28;20054;-91
2022/05/14 12:40:57;;;;;;;8.73;1.98;;;;;;;22.00;43.96;99841.72;4973770;28;20042;-92
2022/05/14 12:43:43;;;;;;;7.35;1.60;;;;;;;21.98;43.61;99841.84;4998407;28;20054;-93
2022/05/14 12:46:27;;;;;;;9.68;1.83;;;;;;;21.19;44.75;99837.63;4988689;28;20041;-91
2022/05/14 12:49:24;;;;;;;3.15;1.02;;;;;;;21.10;43.21;99847.09;4987981;28;20034;-93
2022/05/14 12:52:17;;;;;;;5.80;1.70;;;;;;;21.64;44.29;99854.03;4973016;28;20465;-92
2022/05/14 12:55:13;;;;;;;7.20;1.00;;;;;;;21.79;43.13;99852.13;4986878;28;20035;-91
2022/05/14 12:58:01;;;;;;;6.90;2.25;;;;;;;22.21;42.40;99852.72;4990660;28;20039;-92
2022/05/14 13:00:50;;;;;;;10.02;1.75;;;;;;;21.28;43.03;99855.59;4978178;28;20049;-91
2022/05/14 13:03:57;;;;;;;4.22;1.05;;;;;;;20.60;45.13;99853.13;4993120;28;20203;-92
2022/05/14 13:06:44;;;;;;;5.32;1.10;;;;;;;20.39;44.24;99844.72;4981177;28;20113;-91
2022/05/14 13:09:29;;;;;;;4.63;1.05;;;;;;;20.30;45.05;99846.16;4986405;28;20038;-92
2022/05/14 13:12:29;;;;;;;8.02;1.38;;;;;;;21.05;43.68;99849.19;4989604;28;20034;-91
2022/05/14 13:15:13;;;;;;;5.50;1.40;;;;;;;21.42;43.63;99838.72;4987392;28;20110;-93
2022/05/14 13:17:58;;;;;;;5.60;1.20;;;;;;;20.71;44.14;99840.81;4989330;28;20030;-93
2022/05/14 13:20:44;;;;;;;7.70;1.67;;;;;;;21.00;43.31;99846.84;4983934;28;20124;-92
2022/05/14 13:23:29;;;;;;;3.30;1.40;;;;;;;21.26;42.59;99835.38;4987638;28;20109;-92
2022/05/14 13:26:31;;;;;;;9.70;1.63;;;;;;;20.81;43.39;99842.88;4989780;28;20030;-93
2022/05/14 13:29:22;;;;;;;4.25;1.42;;;;;;;21.36;42.80;99834.66;4978446;28;20034;-93
2022/05/14 13:32:26;;;;;;;7.38;1.50;;;;;;;21.17;43.26;99834.19;4982354;28;20030;-93
2022/05/14 13:38:38;;;;;;;10.43;4.47;;;;;;;21.11;41.72;99834.63;4989666;28;20054;-93